sensor_id;sensor_type;location;lat;lon;timestamp;pressure;altitude;pressure_sealevel;temperature
80680;BMP280;70043;51.982;-8.514;2023-12-29T00:02:13;98326.97;;;7.49
80680;BMP280;70043;51.982;-8.514;2023-12-29T00:04:40;98328.13;;;7.46
80680;BMP280;70043;51.982;-8.514;2023-12-29T00:07:07;98326.72;;;7.50
80680;BMP280;70043;51.982;-8.514;2023-12-29T00:09:34;98325.38;;;7.48
80680;BMP280;70043;51.982;-8.514;2023-12-29T00:12:06;98343.94;;;7.48
80680;BMP280;70043;51.982;-8.514;2023-12-29T00:14:36;98349.00;;;7.48
80680;BMP280;70043;51.982;-8.514;2023-12-29T00:17:04;98344.13;;;7.47
80680;BMP280;70043;51.982;-8.514;2023-12-29T00:19:32;98348.44;;;7.46
80680;BMP280;70043;51.982;-8.514;2023-12-29T00:21:59;98349.59;;;7.44
80680;BMP280;70043;51.982;-8.514;2023-12-29T00:24:28;98345.31;;;7.44
80680;BMP280;70043;51.982;-8.514;2023-12-29T00:26:56;98337.13;;;7.42
80680;BMP280;70043;51.982;-8.514;2023-12-29T00:29:23;98340.88;;;7.40
80680;BMP280;70043;51.982;-8.514;2023-12-29T00:31:50;98357.44;;;7.42
80680;BMP280;70043;51.982;-8.514;2023-12-29T00:34:17;98344.75;;;7.36
80680;BMP280;70043;51.982;-8.514;2023-12-29T00:36:46;98347.31;;;7.36
80680;BMP280;70043;51.982;-8.514;2023-12-29T00:39:13;98343.97;;;7.35
80680;BMP280;70043;51.982;-8.514;2023-12-29T00:41:40;98335.59;;;7.35
80680;BMP280;70043;51.982;-8.514;2023-12-29T00:44:07;98339.88;;;7.34
80680;BMP280;70043;51.982;-8.514;2023-12-29T00:46:34;98353.53;;;7.33
80680;BMP280;70043;51.982;-8.514;2023-12-29T00:49:01;98346.56;;;7.29
80680;BMP280;70043;51.982;-8.514;2023-12-29T00:51:29;98354.00;;;7.30
80680;BMP280;70043;51.982;-8.514;2023-12-29T00:53:58;98355.16;;;7.28
80680;BMP280;70043;51.982;-8.514;2023-12-29T00:56:25;98345.78;;;7.28
80680;BMP280;70043;51.982;-8.514;2023-12-29T00:58:51;98341.50;;;7.29
80680;BMP280;70043;51.982;-8.514;2023-12-29T01:01:18;98351.84;;;7.27
80680;BMP280;70043;51.982;-8.514;2023-12-29T01:03:45;98351.84;;;7.27
80680;BMP280;70043;51.982;-8.514;2023-12-29T01:06:12;98344.22;;;7.27
80680;BMP280;70043;51.982;-8.514;2023-12-29T01:08:39;98361.00;;;7.28
80680;BMP280;70043;51.982;-8.514;2023-12-29T01:11:08;98355.94;;;7.28
80680;BMP280;70043;51.982;-8.514;2023-12-29T01:13:35;98352.22;;;7.24
80680;BMP280;70043;51.982;-8.514;2023-12-29T01:16:02;98357.50;;;7.22
80680;BMP280;70043;51.982;-8.514;2023-12-29T01:18:29;98355.72;;;7.23
80680;BMP280;70043;51.982;-8.514;2023-12-29T01:20:56;98355.16;;;7.21
80680;BMP280;70043;51.982;-8.514;2023-12-29T01:23:23;98353.84;;;7.18
80680;BMP280;70043;51.982;-8.514;2023-12-29T01:25:50;98350.72;;;7.16
80680;BMP280;70043;51.982;-8.514;2023-12-29T01:28:18;98354.03;;;7.17
80680;BMP280;70043;51.982;-8.514;2023-12-29T01:30:45;98365.13;;;7.16
80680;BMP280;70043;51.982;-8.514;2023-12-29T01:33:12;98365.13;;;7.16
80680;BMP280;70043;51.982;-8.514;2023-12-29T01:35:39;98365.34;;;7.14
80680;BMP280;70043;51.982;-8.514;2023-12-29T01:38:06;98368.84;;;7.13
80680;BMP280;70043;51.982;-8.514;2023-12-29T01:40:42;98365.94;;;7.10
80680;BMP280;70043;51.982;-8.514;2023-12-29T01:43:09;98351.69;;;7.09
80680;BMP280;70043;51.982;-8.514;2023-12-29T01:45:38;98355.97;;;7.08
80680;BMP280;70043;51.982;-8.514;2023-12-29T01:48:06;98351.88;;;7.07
80680;BMP280;70043;51.982;-8.514;2023-12-29T01:50:35;98358.16;;;7.05
80680;BMP280;70043;51.982;-8.514;2023-12-29T01:53:03;98362.66;;;7.03
80680;BMP280;70043;51.982;-8.514;2023-12-29T01:55:32;98368.28;;;7.05
80680;BMP280;70043;51.982;-8.514;2023-12-29T01:57:59;98353.06;;;7.05
80680;BMP280;70043;51.982;-8.514;2023-12-29T02:00:27;98358.56;;;7.02
80680;BMP280;70043;51.982;-8.514;2023-12-29T02:02:56;98370.03;;;7.04
80680;BMP280;70043;51.982;-8.514;2023-12-29T02:05:23;98372.41;;;7.06
80680;BMP280;70043;51.982;-8.514;2023-12-29T02:07:51;98371.06;;;7.03
80680;BMP280;70043;51.982;-8.514;2023-12-29T02:10:19;98372.81;;;7.03
80680;BMP280;70043;51.982;-8.514;2023-12-29T02:12:47;98368.66;;;7.08
80680;BMP280;70043;51.982;-8.514;2023-12-29T02:15:14;98369.44;;;7.09
80680;BMP280;70043;51.982;-8.514;2023-12-29T02:17:45;98371.41;;;7.07
80680;BMP280;70043;51.982;-8.514;2023-12-29T02:20:14;98360.91;;;7.03
80680;BMP280;70043;51.982;-8.514;2023-12-29T02:22:41;98362.63;;;6.96
80680;BMP280;70043;51.982;-8.514;2023-12-29T02:25:10;98366.94;;;6.96
80680;BMP280;70043;51.982;-8.514;2023-12-29T02:27:43;98373.19;;;6.87
80680;BMP280;70043;51.982;-8.514;2023-12-29T02:30:17;98377.13;;;6.83
80680;BMP280;70043;51.982;-8.514;2023-12-29T02:32:46;98370.28;;;6.83
80680;BMP280;70043;51.982;-8.514;2023-12-29T02:35:18;98368.16;;;6.80
80680;BMP280;70043;51.982;-8.514;2023-12-29T02:37:45;98374.00;;;6.81
80680;BMP280;70043;51.982;-8.514;2023-12-29T02:40:14;98371.47;;;6.81
80680;BMP280;70043;51.982;-8.514;2023-12-29T02:42:45;98384.94;;;6.74
80680;BMP280;70043;51.982;-8.514;2023-12-29T02:45:13;98383.38;;;6.73
80680;BMP280;70043;51.982;-8.514;2023-12-29T02:47:40;98372.25;;;6.74
80680;BMP280;70043;51.982;-8.514;2023-12-29T02:50:08;98371.66;;;6.72
80680;BMP280;70043;51.982;-8.514;2023-12-29T02:52:35;98371.06;;;6.70
80680;BMP280;70043;51.982;-8.514;2023-12-29T02:55:03;98371.06;;;6.70
80680;BMP280;70043;51.982;-8.514;2023-12-29T02:57:31;98374.41;;;6.71
80680;BMP280;70043;51.982;-8.514;2023-12-29T02:59:58;98373.22;;;6.67
80680;BMP280;70043;51.982;-8.514;2023-12-29T03:02:25;98375.56;;;6.68
80680;BMP280;70043;51.982;-8.514;2023-12-29T03:04:52;98367.78;;;6.63
80680;BMP280;70043;51.982;-8.514;2023-12-29T03:07:19;98363.69;;;6.62
80680;BMP280;70043;51.982;-8.514;2023-12-29T03:09:46;98349.44;;;6.61
80680;BMP280;70043;51.982;-8.514;2023-12-29T03:12:13;98345.94;;;6.62
80680;BMP280;70043;51.982;-8.514;2023-12-29T03:18:04;98346.34;;;6.66
80680;BMP280;70043;51.982;-8.514;2023-12-29T03:20:31;98349.84;;;6.58
80680;BMP280;70043;51.982;-8.514;2023-12-29T03:22:58;98363.69;;;6.62
80680;BMP280;70043;51.982;-8.514;2023-12-29T03:25:25;98355.13;;;6.63
80680;BMP280;70043;51.982;-8.514;2023-12-29T03:27:52;98358.81;;;6.67
80680;BMP280;70043;51.982;-8.514;2023-12-29T03:30:19;98352.00;;;6.68
80680;BMP280;70043;51.982;-8.514;2023-12-29T03:32:46;98352.53;;;6.70
80680;BMP280;70043;51.982;-8.514;2023-12-29T03:35:14;98347.47;;;6.70
80680;BMP280;70043;51.982;-8.514;2023-12-29T03:37:42;98341.06;;;6.74
80680;BMP280;70043;51.982;-8.514;2023-12-29T03:40:09;98339.09;;;6.76
80680;BMP280;70043;51.982;-8.514;2023-12-29T03:42:39;98337.53;;;6.82
80680;BMP280;70043;51.982;-8.514;2023-12-29T03:45:07;98337.75;;;6.80
80680;BMP280;70043;51.982;-8.514;2023-12-29T03:47:34;98339.09;;;6.83
80680;BMP280;70043;51.982;-8.514;2023-12-29T03:50:01;98338.53;;;6.81
80680;BMP280;70043;51.982;-8.514;2023-12-29T03:52:30;98342.22;;;6.85
80680;BMP280;70043;51.982;-8.514;2023-12-29T03:54:57;98349.81;;;6.85
80680;BMP280;70043;51.982;-8.514;2023-12-29T03:57:24;98348.63;;;6.87
80680;BMP280;70043;51.982;-8.514;2023-12-29T03:59:51;98332.25;;;6.90
80680;BMP280;70043;51.982;-8.514;2023-12-29T04:02:18;98329.72;;;6.90
80680;BMP280;70043;51.982;-8.514;2023-12-29T04:04:45;98342.19;;;6.91
80680;BMP280;70043;51.982;-8.514;2023-12-29T04:07:12;98337.31;;;6.90
80680;BMP280;70043;51.982;-8.514;2023-12-29T04:09:40;98330.31;;;6.92
80680;BMP280;70043;51.982;-8.514;2023-12-29T04:12:07;98326.81;;;6.93
80680;BMP280;70043;51.982;-8.514;2023-12-29T04:14:34;98330.69;;;6.89
80680;BMP280;70043;51.982;-8.514;2023-12-29T04:17:01;98322.88;;;6.90
80680;BMP280;70043;51.982;-8.514;2023-12-29T04:19:29;98322.88;;;6.90
80680;BMP280;70043;51.982;-8.514;2023-12-29T04:21:56;98313.16;;;6.94
80680;BMP280;70043;51.982;-8.514;2023-12-29T04:24:22;98309.81;;;6.93
80680;BMP280;70043;51.982;-8.514;2023-12-29T04:26:51;98314.66;;;6.95
80680;BMP280;70043;51.982;-8.514;2023-12-29T04:29:18;98314.66;;;6.95
80680;BMP280;70043;51.982;-8.514;2023-12-29T04:31:45;98315.88;;;6.92
80680;BMP280;70043;51.982;-8.514;2023-12-29T04:34:12;98313.53;;;6.84
80680;BMP280;70043;51.982;-8.514;2023-12-29T04:36:39;98312.38;;;6.80
80680;BMP280;70043;51.982;-8.514;2023-12-29T04:39:06;98303.41;;;6.77
80680;BMP280;70043;51.982;-8.514;2023-12-29T04:41:34;98305.75;;;6.79
80680;BMP280;70043;51.982;-8.514;2023-12-29T04:44:03;98297.00;;;6.75
80680;BMP280;70043;51.982;-8.514;2023-12-29T04:46:30;98294.06;;;6.71
80680;BMP280;70043;51.982;-8.514;2023-12-29T04:48:57;98293.28;;;6.71
80680;BMP280;70043;51.982;-8.514;2023-12-29T04:51:24;98295.22;;;6.69
80680;BMP280;70043;51.982;-8.514;2023-12-29T04:53:51;98281.00;;;6.68
80680;BMP280;70043;51.982;-8.514;2023-12-29T04:56:18;98283.91;;;6.71
80680;BMP280;70043;51.982;-8.514;2023-12-29T04:58:45;98280.41;;;6.72
80680;BMP280;70043;51.982;-8.514;2023-12-29T05:01:14;98281.78;;;6.68
80680;BMP280;70043;51.982;-8.514;2023-12-29T05:03:40;98293.69;;;6.74
80680;BMP280;70043;51.982;-8.514;2023-12-29T05:06:07;98294.03;;;6.78
80680;BMP280;70043;51.982;-8.514;2023-12-29T05:08:34;98291.53;;;6.71
80680;BMP280;70043;51.982;-8.514;2023-12-29T05:11:01;98290.94;;;6.69
80680;BMP280;70043;51.982;-8.514;2023-12-29T05:13:28;98293.69;;;6.68
80680;BMP280;70043;51.982;-8.514;2023-12-29T05:15:55;98287.84;;;6.67
80680;BMP280;70043;51.982;-8.514;2023-12-29T05:18:24;98285.13;;;6.62
80680;BMP280;70043;51.982;-8.514;2023-12-29T05:20:53;98279.28;;;6.62
80680;BMP280;70043;51.982;-8.514;2023-12-29T05:23:20;98277.72;;;6.61
80680;BMP280;70043;51.982;-8.514;2023-12-29T05:25:47;98275.75;;;6.63
80680;BMP280;70043;51.982;-8.514;2023-12-29T05:28:14;98272.63;;;6.67
80680;BMP280;70043;51.982;-8.514;2023-12-29T05:30:41;98270.09;;;6.74
80680;BMP280;70043;51.982;-8.514;2023-12-29T05:33:08;98277.28;;;6.70
80680;BMP280;70043;51.982;-8.514;2023-12-29T05:35:36;98276.91;;;6.73
80680;BMP280;70043;51.982;-8.514;2023-12-29T05:38:03;98281.97;;;6.73
80680;BMP280;70043;51.982;-8.514;2023-12-29T05:40:30;98281.97;;;6.73
80680;BMP280;70043;51.982;-8.514;2023-12-29T05:42:57;98285.69;;;6.71
80680;BMP280;70043;51.982;-8.514;2023-12-29T05:45:24;98293.47;;;6.69
80680;BMP280;70043;51.982;-8.514;2023-12-29T05:47:51;98295.44;;;6.67
80680;BMP280;70043;51.982;-8.514;2023-12-29T05:50:18;98291.38;;;6.66
80680;BMP280;70043;51.982;-8.514;2023-12-29T05:52:46;98295.84;;;6.64
80680;BMP280;70043;51.982;-8.514;2023-12-29T05:55:17;98288.81;;;6.60
80680;BMP280;70043;51.982;-8.514;2023-12-29T05:57:44;98292.91;;;6.61
80680;BMP280;70043;51.982;-8.514;2023-12-29T06:00:12;98293.91;;;6.66
80680;BMP280;70043;51.982;-8.514;2023-12-29T06:02:40;98296.44;;;6.66
80680;BMP280;70043;51.982;-8.514;2023-12-29T06:05:10;98288.25;;;6.64
80680;BMP280;70043;51.982;-8.514;2023-12-29T06:07:37;98283.38;;;6.63
80680;BMP280;70043;51.982;-8.514;2023-12-29T06:10:07;98295.06;;;6.64
80680;BMP280;70043;51.982;-8.514;2023-12-29T06:12:34;98295.06;;;6.64
80680;BMP280;70043;51.982;-8.514;2023-12-29T06:15:02;98303.81;;;6.68
80680;BMP280;70043;51.982;-8.514;2023-12-29T06:17:29;98316.28;;;6.69
80680;BMP280;70043;51.982;-8.514;2023-12-29T06:19:56;98304.97;;;6.72
80680;BMP280;70043;51.982;-8.514;2023-12-29T06:22:23;98312.59;;;6.72
80680;BMP280;70043;51.982;-8.514;2023-12-29T06:24:50;98309.25;;;6.71
80680;BMP280;70043;51.982;-8.514;2023-12-29T06:27:19;98320.00;;;6.73
80680;BMP280;70043;51.982;-8.514;2023-12-29T06:29:46;98312.75;;;6.77
80680;BMP280;70043;51.982;-8.514;2023-12-29T06:32:13;98319.81;;;6.82
80680;BMP280;70043;51.982;-8.514;2023-12-29T06:34:40;98325.44;;;6.84
80680;BMP280;70043;51.982;-8.514;2023-12-29T06:37:07;98334.00;;;6.83
80680;BMP280;70043;51.982;-8.514;2023-12-29T06:39:34;98338.53;;;6.81
80680;BMP280;70043;51.982;-8.514;2023-12-29T06:42:01;98331.09;;;6.79
80680;BMP280;70043;51.982;-8.514;2023-12-29T06:44:29;98333.25;;;6.82
80680;BMP280;70043;51.982;-8.514;2023-12-29T06:46:56;98328.38;;;6.81
80680;BMP280;70043;51.982;-8.514;2023-12-29T06:49:23;98336.53;;;6.83
80680;BMP280;70043;51.982;-8.514;2023-12-29T06:51:51;98337.69;;;6.87
80680;BMP280;70043;51.982;-8.514;2023-12-29T06:54:18;98346.88;;;6.88
80680;BMP280;70043;51.982;-8.514;2023-12-29T06:56:45;98348.63;;;6.87
80680;BMP280;70043;51.982;-8.514;2023-12-29T06:59:13;98356.81;;;6.89
80680;BMP280;70043;51.982;-8.514;2023-12-29T07:01:42;98354.09;;;6.91
80680;BMP280;70043;51.982;-8.514;2023-12-29T07:04:10;98344.53;;;6.93
80680;BMP280;70043;51.982;-8.514;2023-12-29T07:06:36;98350.16;;;6.95
80680;BMP280;70043;51.982;-8.514;2023-12-29T07:09:04;98339.81;;;6.96
80680;BMP280;70043;51.982;-8.514;2023-12-29T07:11:31;98343.56;;;6.94
80680;BMP280;70043;51.982;-8.514;2023-12-29T07:13:58;98356.41;;;6.99
80680;BMP280;70043;51.982;-8.514;2023-12-29T07:16:25;98355.44;;;7.00
80680;BMP280;70043;51.982;-8.514;2023-12-29T07:18:53;98359.13;;;7.04
80680;BMP280;70043;51.982;-8.514;2023-12-29T07:21:20;98352.88;;;7.06
80680;BMP280;70043;51.982;-8.514;2023-12-29T07:23:47;98358.94;;;7.05
80680;BMP280;70043;51.982;-8.514;2023-12-29T07:26:14;98358.75;;;7.07
80680;BMP280;70043;51.982;-8.514;2023-12-29T07:28:41;98366.91;;;7.09
80680;BMP280;70043;51.982;-8.514;2023-12-29T07:31:08;98358.31;;;7.10
80680;BMP280;70043;51.982;-8.514;2023-12-29T07:33:35;98354.22;;;7.09
80680;BMP280;70043;51.982;-8.514;2023-12-29T07:36:04;98359.31;;;7.09
80680;BMP280;70043;51.982;-8.514;2023-12-29T07:38:31;98362.44;;;7.11
80680;BMP280;70043;51.982;-8.514;2023-12-29T07:40:58;98359.47;;;7.14
80680;BMP280;70043;51.982;-8.514;2023-12-29T07:43:25;98352.47;;;7.16
80680;BMP280;70043;51.982;-8.514;2023-12-29T07:45:51;98359.88;;;7.17
80680;BMP280;70043;51.982;-8.514;2023-12-29T07:48:18;98379.94;;;7.19
80680;BMP280;70043;51.982;-8.514;2023-12-29T07:50:45;98382.31;;;7.20
80680;BMP280;70043;51.982;-8.514;2023-12-29T07:53:14;98382.31;;;7.20
80680;BMP280;70043;51.982;-8.514;2023-12-29T07:55:42;98376.44;;;7.20
80680;BMP280;70043;51.982;-8.514;2023-12-29T07:58:11;98389.72;;;7.22
80680;BMP280;70043;51.982;-8.514;2023-12-29T08:00:38;98393.78;;;7.23
80680;BMP280;70043;51.982;-8.514;2023-12-29T08:03:05;98399.09;;;7.22
80680;BMP280;70043;51.982;-8.514;2023-12-29T08:05:33;98405.31;;;7.19
80680;BMP280;70043;51.982;-8.514;2023-12-29T08:08:00;98407.84;;;7.19
80680;BMP280;70043;51.982;-8.514;2023-12-29T08:10:28;98394.19;;;7.20
80680;BMP280;70043;51.982;-8.514;2023-12-29T08:12:57;98400.63;;;7.22
80680;BMP280;70043;51.982;-8.514;2023-12-29T08:15:24;98407.06;;;7.25
80680;BMP280;70043;51.982;-8.514;2023-12-29T08:17:51;98390.69;;;7.28
80680;BMP280;70043;51.982;-8.514;2023-12-29T08:20:18;98378.59;;;7.30
80680;BMP280;70043;51.982;-8.514;2023-12-29T08:22:46;98391.28;;;7.30
80680;BMP280;70043;51.982;-8.514;2023-12-29T08:25:13;98385.97;;;7.31
80680;BMP280;70043;51.982;-8.514;2023-12-29T08:27:41;98389.50;;;7.30
80680;BMP280;70043;51.982;-8.514;2023-12-29T08:30:09;98383.44;;;7.31
80680;BMP280;70043;51.982;-8.514;2023-12-29T08:32:36;98378.13;;;7.33
80680;BMP280;70043;51.982;-8.514;2023-12-29T08:35:04;98380.47;;;7.34
80680;BMP280;70043;51.982;-8.514;2023-12-29T08:37:31;98378.53;;;7.36
80680;BMP280;70043;51.982;-8.514;2023-12-29T08:39:58;98387.13;;;7.35
80680;BMP280;70043;51.982;-8.514;2023-12-29T08:42:25;98381.47;;;7.40
80680;BMP280;70043;51.982;-8.514;2023-12-29T08:44:54;98389.09;;;7.40
80680;BMP280;70043;51.982;-8.514;2023-12-29T08:47:21;98391.41;;;7.41
80680;BMP280;70043;51.982;-8.514;2023-12-29T08:49:49;98397.25;;;7.42
80680;BMP280;70043;51.982;-8.514;2023-12-29T08:52:16;98402.34;;;7.42
80680;BMP280;70043;51.982;-8.514;2023-12-29T08:54:43;98402.34;;;7.42
80680;BMP280;70043;51.982;-8.514;2023-12-29T08:57:10;98416.00;;;7.41
80680;BMP280;70043;51.982;-8.514;2023-12-29T08:59:37;98428.13;;;7.39
80680;BMP280;70043;51.982;-8.514;2023-12-29T09:02:06;98438.47;;;7.37
80680;BMP280;70043;51.982;-8.514;2023-12-29T09:04:33;98441.97;;;7.36
80680;BMP280;70043;51.982;-8.514;2023-12-29T09:07:00;98460.34;;;7.38
80680;BMP280;70043;51.982;-8.514;2023-12-29T09:09:30;98471.47;;;7.37
80680;BMP280;70043;51.982;-8.514;2023-12-29T09:11:57;98476.53;;;7.37
80680;BMP280;70043;51.982;-8.514;2023-12-29T09:14:24;98460.13;;;7.40
80680;BMP280;70043;51.982;-8.514;2023-12-29T09:16:50;98459.34;;;7.39
80680;BMP280;70043;51.982;-8.514;2023-12-29T09:19:19;98472.19;;;7.44
80680;BMP280;70043;51.982;-8.514;2023-12-29T09:21:46;98469.28;;;7.47
80680;BMP280;70043;51.982;-8.514;2023-12-29T09:24:13;98468.69;;;7.52
80680;BMP280;70043;51.982;-8.514;2023-12-29T09:26:40;98460.50;;;7.50
80680;BMP280;70043;51.982;-8.514;2023-12-29T09:29:07;98470.25;;;7.53
80680;BMP280;70043;51.982;-8.514;2023-12-29T09:31:34;98470.25;;;7.53
80680;BMP280;70043;51.982;-8.514;2023-12-29T09:34:01;98481.94;;;7.54
80680;BMP280;70043;51.982;-8.514;2023-12-29T09:36:30;98489.78;;;7.52
80680;BMP280;70043;51.982;-8.514;2023-12-29T09:38:57;98489.78;;;7.52
80680;BMP280;70043;51.982;-8.514;2023-12-29T09:41:25;98493.28;;;7.51
80680;BMP280;70043;51.982;-8.514;2023-12-29T09:43:53;98486.25;;;7.53
80680;BMP280;70043;51.982;-8.514;2023-12-29T09:46:21;98482.34;;;7.57
80680;BMP280;70043;51.982;-8.514;2023-12-29T09:48:52;98486.22;;;7.60
80680;BMP280;70043;51.982;-8.514;2023-12-29T09:51:19;98496.00;;;7.63
80680;BMP280;70043;51.982;-8.514;2023-12-29T09:53:51;98486.75;;;7.69
80680;BMP280;70043;51.982;-8.514;2023-12-29T09:56:19;98504.16;;;7.72
80680;BMP280;70043;51.982;-8.514;2023-12-29T09:58:47;98515.50;;;7.76
80680;BMP280;70043;51.982;-8.514;2023-12-29T10:01:14;98513.09;;;7.81
80680;BMP280;70043;51.982;-8.514;2023-12-29T10:03:43;98517.59;;;7.85
80680;BMP280;70043;51.982;-8.514;2023-12-29T10:06:13;98514.06;;;7.93
80680;BMP280;70043;51.982;-8.514;2023-12-29T10:08:45;98514.97;;;7.98
80680;BMP280;70043;51.982;-8.514;2023-12-29T10:11:14;98506.97;;;8.01
80680;BMP280;70043;51.982;-8.514;2023-12-29T10:13:42;98520.47;;;8.02
80680;BMP280;70043;51.982;-8.514;2023-12-29T10:16:18;98513.00;;;8.07
80680;BMP280;70043;51.982;-8.514;2023-12-29T10:18:55;98510.28;;;8.09
80680;BMP280;70043;51.982;-8.514;2023-12-29T10:21:28;98509.06;;;8.11
80680;BMP280;70043;51.982;-8.514;2023-12-29T10:24:01;98513.97;;;8.13
80680;BMP280;70043;51.982;-8.514;2023-12-29T10:26:30;98520.38;;;8.15
80680;BMP280;70043;51.982;-8.514;2023-12-29T10:28:58;98522.53;;;8.18
80680;BMP280;70043;51.982;-8.514;2023-12-29T10:31:26;98526.78;;;8.24
80680;BMP280;70043;51.982;-8.514;2023-12-29T10:34:19;98533.66;;;8.24
80680;BMP280;70043;51.982;-8.514;2023-12-29T10:36:48;98545.34;;;8.25
80680;BMP280;70043;51.982;-8.514;2023-12-29T10:39:15;98549.66;;;8.24
80680;BMP280;70043;51.982;-8.514;2023-12-29T10:41:44;98545.94;;;8.27
80680;BMP280;70043;51.982;-8.514;2023-12-29T10:44:11;98546.72;;;8.27
80680;BMP280;70043;51.982;-8.514;2023-12-29T10:46:40;98556.13;;;8.27
80680;BMP280;70043;51.982;-8.514;2023-12-29T10:49:08;98550.25;;;8.26
80680;BMP280;70043;51.982;-8.514;2023-12-29T10:51:37;98541.06;;;8.25
80680;BMP280;70043;51.982;-8.514;2023-12-29T10:54:05;98553.22;;;8.23
80680;BMP280;70043;51.982;-8.514;2023-12-29T10:56:33;98544.38;;;8.26
80680;BMP280;70043;51.982;-8.514;2023-12-29T10:59:03;98548.28;;;8.28
80680;BMP280;70043;51.982;-8.514;2023-12-29T11:01:34;98552.41;;;8.29
80680;BMP280;70043;51.982;-8.514;2023-12-29T11:04:02;98562.34;;;8.31
80680;BMP280;70043;51.982;-8.514;2023-12-29T11:06:39;98571.13;;;8.35
80680;BMP280;70043;51.982;-8.514;2023-12-29T11:09:06;98570.34;;;8.34
80680;BMP280;70043;51.982;-8.514;2023-12-29T11:11:35;98570.34;;;8.34
80680;BMP280;70043;51.982;-8.514;2023-12-29T11:14:13;98566.81;;;8.35
80680;BMP280;70043;51.982;-8.514;2023-12-29T11:16:52;98578.75;;;8.35
80680;BMP280;70043;51.982;-8.514;2023-12-29T11:19:21;98580.50;;;8.34
80680;BMP280;70043;51.982;-8.514;2023-12-29T11:21:52;98579.13;;;8.38
80680;BMP280;70043;51.982;-8.514;2023-12-29T11:24:23;98590.88;;;8.39
80680;BMP280;70043;51.982;-8.514;2023-12-29T11:26:51;98586.13;;;8.43
80680;BMP280;70043;51.982;-8.514;2023-12-29T11:29:20;98575.38;;;8.47
80680;BMP280;70043;51.982;-8.514;2023-12-29T11:31:50;98565.78;;;8.49
80680;BMP280;70043;51.982;-8.514;2023-12-29T11:34:23;98551.47;;;8.55
80680;BMP280;70043;51.982;-8.514;2023-12-29T11:36:58;98545.78;;;8.60
80680;BMP280;70043;51.982;-8.514;2023-12-29T11:39:38;98547.09;;;8.69
80680;BMP280;70043;51.982;-8.514;2023-12-29T11:42:12;98555.63;;;8.74
80680;BMP280;70043;51.982;-8.514;2023-12-29T11:44:42;98545.97;;;8.83
80680;BMP280;70043;51.982;-8.514;2023-12-29T11:47:34;98550.81;;;8.91
80680;BMP280;70043;51.982;-8.514;2023-12-29T11:50:01;98535.84;;;9.01
80680;BMP280;70043;51.982;-8.514;2023-12-29T11:52:33;98538.78;;;9.05
80680;BMP280;70043;51.982;-8.514;2023-12-29T11:55:07;98566.13;;;9.09
80680;BMP280;70043;51.982;-8.514;2023-12-29T11:57:35;98573.88;;;9.21
80680;BMP280;70043;51.982;-8.514;2023-12-29T12:00:07;98583.00;;;9.28
80680;BMP280;70043;51.982;-8.514;2023-12-29T12:02:34;98575.88;;;9.37
80680;BMP280;70043;51.982;-8.514;2023-12-29T12:05:01;98577.81;;;9.42
80680;BMP280;70043;51.982;-8.514;2023-12-29T12:07:58;98588.09;;;9.53
80680;BMP280;70043;51.982;-8.514;2023-12-29T12:10:32;98592.13;;;9.61
80680;BMP280;70043;51.982;-8.514;2023-12-29T12:12:59;98582.84;;;9.66
80680;BMP280;70043;51.982;-8.514;2023-12-29T12:15:34;98582.00;;;9.72
80680;BMP280;70043;51.982;-8.514;2023-12-29T12:18:03;98586.44;;;9.77
80680;BMP280;70043;51.982;-8.514;2023-12-29T12:20:33;98599.88;;;9.84
80680;BMP280;70043;51.982;-8.514;2023-12-29T12:23:02;98603.22;;;9.84
80680;BMP280;70043;51.982;-8.514;2023-12-29T12:25:31;98595.75;;;9.90
80680;BMP280;70043;51.982;-8.514;2023-12-29T12:28:06;98598.63;;;9.93
80680;BMP280;70043;51.982;-8.514;2023-12-29T12:30:35;98603.88;;;9.98
80680;BMP280;70043;51.982;-8.514;2023-12-29T12:33:04;98595.38;;;10.04
80680;BMP280;70043;51.982;-8.514;2023-12-29T12:35:31;98598.25;;;10.08
80680;BMP280;70043;51.982;-8.514;2023-12-29T12:38:09;98590.38;;;10.09
80680;BMP280;70043;51.982;-8.514;2023-12-29T12:40:37;98592.16;;;10.09
80680;BMP280;70043;51.982;-8.514;2023-12-29T12:43:05;98597.22;;;10.15
80680;BMP280;70043;51.982;-8.514;2023-12-29T12:45:40;98594.84;;;10.14
80680;BMP280;70043;51.982;-8.514;2023-12-29T12:48:12;98595.63;;;10.14
80680;BMP280;70043;51.982;-8.514;2023-12-29T12:50:43;98591.53;;;10.13
80680;BMP280;70043;51.982;-8.514;2023-12-29T12:53:11;98588.00;;;10.14
80680;BMP280;70043;51.982;-8.514;2023-12-29T12:55:48;98579.91;;;10.17
80680;BMP280;70043;51.982;-8.514;2023-12-29T12:58:17;98580.88;;;10.16
80680;BMP280;70043;51.982;-8.514;2023-12-29T13:00:47;98576.25;;;10.25
80680;BMP280;70043;51.982;-8.514;2023-12-29T13:03:15;98582.16;;;10.25
80680;BMP280;70043;51.982;-8.514;2023-12-29T13:05:44;98576.50;;;10.23
80680;BMP280;70043;51.982;-8.514;2023-12-29T13:08:13;98580.94;;;10.28
80680;BMP280;70043;51.982;-8.514;2023-12-29T13:10:40;98558.56;;;10.42
80680;BMP280;70043;51.982;-8.514;2023-12-29T13:13:09;98559.28;;;10.49
80680;BMP280;70043;51.982;-8.514;2023-12-29T13:15:47;98558.84;;;10.52
80680;BMP280;70043;51.982;-8.514;2023-12-29T13:18:14;98553.31;;;10.55
80680;BMP280;70043;51.982;-8.514;2023-12-29T13:20:44;98555.88;;;10.55
80680;BMP280;70043;51.982;-8.514;2023-12-29T13:23:11;98565.50;;;10.53
80680;BMP280;70043;51.982;-8.514;2023-12-29T13:25:39;98565.91;;;10.50
80680;BMP280;70043;51.982;-8.514;2023-12-29T13:28:07;98567.06;;;10.54
80680;BMP280;70043;51.982;-8.514;2023-12-29T13:30:36;98572.06;;;10.60
80680;BMP280;70043;51.982;-8.514;2023-12-29T13:33:09;98568.50;;;10.61
80680;BMP280;70043;51.982;-8.514;2023-12-29T13:35:39;98574.41;;;10.62
80680;BMP280;70043;51.982;-8.514;2023-12-29T13:38:10;98581.84;;;10.63
80680;BMP280;70043;51.982;-8.514;2023-12-29T13:40:40;98570.06;;;10.62
80680;BMP280;70043;51.982;-8.514;2023-12-29T13:43:08;98573.94;;;10.65
80680;BMP280;70043;51.982;-8.514;2023-12-29T13:45:36;98590.38;;;10.69
80680;BMP280;70043;51.982;-8.514;2023-12-29T13:48:08;98584.16;;;10.65
80680;BMP280;70043;51.982;-8.514;2023-12-29T13:50:35;98580.69;;;10.59
80680;BMP280;70043;51.982;-8.514;2023-12-29T13:53:03;98590.13;;;10.59
80680;BMP280;70043;51.982;-8.514;2023-12-29T13:55:30;98605.22;;;10.60
80680;BMP280;70043;51.982;-8.514;2023-12-29T13:57:57;98605.00;;;10.62
80680;BMP280;70043;51.982;-8.514;2023-12-29T14:00:26;98610.69;;;10.64
80680;BMP280;70043;51.982;-8.514;2023-12-29T14:03:02;98615.22;;;10.62
80680;BMP280;70043;51.982;-8.514;2023-12-29T14:05:36;98612.66;;;10.62
80680;BMP280;70043;51.982;-8.514;2023-12-29T14:08:10;98612.88;;;10.60
80680;BMP280;70043;51.982;-8.514;2023-12-29T14:10:44;98603.44;;;10.61
80680;BMP280;70043;51.982;-8.514;2023-12-29T14:13:12;98604.03;;;10.63
80680;BMP280;70043;51.982;-8.514;2023-12-29T14:15:41;98615.22;;;10.62
80680;BMP280;70043;51.982;-8.514;2023-12-29T14:18:18;98618.56;;;10.62